Galliano, Louisiana
Current Conditions -  °F | °C
As of 12:47 PM on Thursday 30 Oct 2014 (Local Time) from KHUM Reporting Station
Clear Clear  
Wind Chill: 73°   Ceiling: Unl
Heat Index: 73°   Visibility: 7mi
Dew Point: 46°   Wind: 15mph
Humidity: 38%   Direction: 40°NE
Pressure: 30.08"   Gusts: NA
Location:  29.44°N, 90.3°W
Report Text: KHUM 301747Z 04013KT 7SM SKC 23/08 A3008 RMK ATIS GOLF VA RY36 RY12/30 CLSD MS
Loading
Personal Weather Stations






























Interactive Weather Map
Tropical Storm Tracking
New forecast layout! Learn more

10-Day Weather Forecast

Advertisements
Track Severe Weather on mobile